logo
Search for airport 
image banner adimage banner adimage banner ad
image banner ad

YHIL - Hillside Airport

Located in Hillside, Australia

ICAO - YHIL, IATA - HLL

Data provided by Airmate  

General information

Coordinates: S21°43'5" E119°26'28"
Elevation is 935 feet MSL.
Magnetic variation is 1° East
View others Airports in Western Australia

Operational data

Special qualification required
Current time UTC:
Current local time:
Weather at : - ( 0 km )
METAR: USCM 130255Z 03010G15MPS 9999 -SHRA BKN011CB 18/16 Q1001 R36/290352 TEMPO 36018MPS 1000 TSRA VV003 RMK QFE713
View NOTAMs / SUP AIP / TFR affecting this airport [VIEW]
Communications frequencies: [VIEW]

Runways:

RWY identifierQFULength (ft)Width (ft)SurfaceLDA (ft)
26265°6189103DIRT
0885°6189103DIRT

Airport contact information

Address: Hillside Australia

Satellite view of YHIL